createdAt,value
2018-12-27T00:00:52.968Z,3.60
2018-12-27T00:03:21.794Z,3.40
2018-12-27T00:05:50.902Z,3.40
2018-12-27T00:08:19.858Z,3.40
2018-12-27T00:10:48.789Z,3.50
2018-12-27T00:13:17.993Z,3.60
2018-12-27T00:15:46.781Z,3.50
2018-12-27T00:18:15.896Z,3.40
2018-12-27T00:20:44.841Z,3.40
2018-12-27T00:23:13.684Z,3.30
2018-12-27T00:25:42.794Z,3.20
2018-12-27T00:28:11.689Z,3.30
2018-12-27T00:30:40.705Z,3.30
2018-12-27T00:33:09.757Z,3.30
2018-12-27T00:35:39.261Z,3.30
2018-12-27T00:38:08.288Z,3.40
2018-12-27T00:40:37.533Z,3.40
2018-12-27T00:43:06.551Z,3.50
2018-12-27T00:45:35.613Z,3.50
2018-12-27T00:48:04.637Z,3.40
2018-12-27T00:50:33.669Z,3.40
2018-12-27T00:53:02.649Z,3.30
2018-12-27T00:55:31.666Z,3.40
2018-12-27T00:58:00.666Z,3.30
2018-12-27T01:00:29.670Z,3.30
2018-12-27T01:02:58.654Z,3.30
2018-12-27T01:05:27.923Z,3.40
2018-12-27T01:07:56.905Z,3.50
2018-12-27T01:10:26.189Z,3.60
2018-12-27T01:12:55.141Z,3.50
2018-12-27T01:15:24.130Z,3.70
2018-12-27T01:17:54.150Z,3.70
2018-12-27T01:20:23.126Z,3.70
2018-12-27T01:22:52.099Z,3.70
2018-12-27T01:25:21.091Z,3.60
2018-12-27T01:27:50.110Z,3.60
2018-12-27T01:30:19.073Z,3.70
2018-12-27T01:32:48.398Z,3.70
2018-12-27T01:35:17.415Z,3.70
2018-12-27T01:37:46.634Z,3.80
2018-12-27T01:40:15.657Z,3.70
2018-12-27T01:42:44.691Z,3.60
2018-12-27T01:45:13.802Z,3.50
2018-12-27T01:47:42.773Z,3.50
2018-12-27T01:50:12.253Z,3.50
2018-12-27T01:52:41.293Z,3.40
2018-12-27T01:55:10.250Z,3.40
2018-12-27T01:57:39.253Z,3.30
2018-12-27T02:00:08.392Z,3.40
2018-12-27T02:02:37.414Z,3.50
2018-12-27T02:05:06.481Z,3.50
2018-12-27T02:07:35.487Z,3.50
2018-12-27T02:10:04.514Z,3.50
2018-12-27T02:12:33.751Z,3.50
2018-12-27T02:15:02.759Z,3.50
2018-12-27T02:17:31.898Z,3.50
2018-12-27T02:20:00.902Z,3.50
2018-12-27T02:22:30.422Z,3.50
2018-12-27T02:24:59.421Z,3.50
2018-12-27T02:27:28.542Z,3.40
2018-12-27T02:29:57.482Z,3.40
2018-12-27T02:32:26.774Z,3.50
2018-12-27T02:34:55.869Z,3.40
2018-12-27T02:37:24.830Z,3.40
2018-12-27T02:39:53.827Z,3.30
2018-12-27T02:42:22.841Z,3.30
2018-12-27T02:44:51.855Z,3.30
2018-12-27T02:47:20.863Z,3.20
2018-12-27T02:49:49.830Z,3.30
2018-12-27T02:52:18.789Z,3.20
2018-12-27T02:54:48.028Z,3.20
2018-12-27T02:57:17.042Z,3.10
2018-12-27T02:59:46.034Z,3.20
2018-12-27T03:02:14.999Z,3.20
2018-12-27T03:04:44.069Z,3.20
2018-12-27T03:07:13.304Z,3.30
2018-12-27T03:09:42.300Z,3.20
2018-12-27T03:12:11.315Z,3.10
2018-12-27T03:14:40.306Z,3.20
2018-12-27T03:17:09.334Z,3.30
2018-12-27T03:19:38.426Z,3.30
2018-12-27T03:22:07.434Z,3.20
2018-12-27T03:24:36.392Z,3.10
2018-12-27T03:27:05.436Z,3.20
2018-12-27T03:29:34.407Z,3.30
2018-12-27T03:32:03.480Z,3.30
2018-12-27T03:34:32.501Z,3.40
2018-12-27T03:37:01.526Z,3.40
2018-12-27T03:39:30.556Z,3.40
2018-12-27T03:41:59.545Z,3.50
2018-12-27T03:44:28.494Z,3.30
2018-12-27T03:46:57.523Z,3.10
2018-12-27T03:49:26.503Z,3.00
2018-12-27T03:51:55.790Z,2.90
2018-12-27T03:54:24.794Z,2.80
2018-12-27T03:56:53.788Z,2.70
2018-12-27T03:59:22.801Z,2.60
2018-12-27T04:01:52.068Z,2.60
2018-12-27T04:04:21.044Z,2.70
2018-12-27T04:06:50.023Z,2.70
2018-12-27T04:09:19.282Z,2.60
2018-12-27T04:11:48.501Z,2.60
2018-12-27T04:14:17.513Z,2.60
2018-12-27T04:16:46.342Z,2.60
2018-12-27T04:19:15.384Z,2.60
2018-12-27T04:21:44.294Z,2.50
2018-12-27T04:24:14.003Z,2.50
2018-12-27T04:26:42.829Z,2.40
2018-12-27T04:29:11.937Z,2.30
2018-12-27T04:31:41.040Z,2.30
2018-12-27T04:34:10.888Z,2.30
2018-12-27T04:36:41.037Z,2.20
2018-12-27T04:39:09.873Z,2.30
2018-12-27T04:41:39.297Z,2.30
2018-12-27T04:44:08.520Z,2.40
2018-12-27T04:46:37.734Z,2.30
2018-12-27T04:49:06.603Z,2.30
2018-12-27T04:51:35.477Z,2.20
2018-12-27T04:54:04.450Z,2.30
2018-12-27T04:56:33.506Z,2.30
2018-12-27T04:59:02.479Z,2.30
2018-12-27T05:01:31.277Z,2.30
2018-12-27T05:04:00.370Z,2.30
2018-12-27T05:06:29.170Z,2.20
2018-12-27T05:08:58.094Z,2.20
2018-12-27T05:11:27.026Z,2.20
2018-12-27T05:13:55.830Z,2.20
2018-12-27T05:16:24.696Z,2.20
2018-12-27T05:18:53.495Z,2.10
2018-12-27T05:21:22.321Z,2.10
2018-12-27T05:23:51.244Z,2.30
2018-12-27T05:26:20.143Z,2.30
2018-12-27T05:28:49.130Z,2.40
2018-12-27T05:31:18.047Z,2.30
2018-12-27T05:33:47.065Z,2.10
2018-12-27T05:36:15.939Z,2.10
2018-12-27T05:38:44.825Z,2.00
2018-12-27T05:41:13.878Z,2.10
2018-12-27T05:43:42.782Z,2.10
2018-12-27T05:46:11.623Z,2.20
2018-12-27T05:48:40.550Z,2.20
2018-12-27T05:51:09.428Z,2.20
2018-12-27T05:53:38.218Z,2.10
2018-12-27T05:56:07.124Z,2.10
2018-12-27T05:58:35.994Z,2.10
2018-12-27T06:01:04.865Z,2.10
2018-12-27T06:03:33.724Z,2.10
2018-12-27T06:06:02.550Z,2.20
2018-12-27T06:08:31.457Z,2.20
2018-12-27T06:11:00.523Z,2.30
2018-12-27T06:13:29.383Z,2.30
2018-12-27T06:15:58.463Z,2.30
2018-12-27T06:18:27.310Z,2.30
2018-12-27T06:20:56.222Z,2.30
2018-12-27T06:23:25.291Z,2.30
2018-12-27T06:25:54.178Z,2.30
2018-12-27T06:28:23.115Z,2.20
2018-12-27T06:30:52.052Z,2.20
2018-12-27T06:33:20.879Z,2.20
2018-12-27T06:35:49.699Z,2.20
2018-12-27T06:38:18.493Z,2.30
2018-12-27T06:40:47.359Z,2.30
2018-12-27T06:43:16.286Z,2.20
2018-12-27T06:45:45.158Z,2.30
2018-12-27T06:48:14.037Z,2.20
2018-12-27T06:50:42.978Z,2.30
2018-12-27T06:53:12.045Z,2.30
2018-12-27T06:55:41.227Z,2.20
2018-12-27T06:58:10.060Z,2.30
2018-12-27T07:00:38.909Z,2.20
2018-12-27T07:03:07.757Z,2.20
2018-12-27T07:05:36.659Z,2.20
2018-12-27T07:08:05.696Z,2.20
2018-12-27T07:10:34.635Z,2.10
2018-12-27T07:13:03.493Z,2.10
2018-12-27T07:15:32.342Z,2.10
2018-12-27T07:18:01.135Z,2.00
2018-12-27T07:20:30.008Z,1.90
2018-12-27T07:22:58.867Z,1.90
2018-12-27T07:25:27.682Z,1.80
2018-12-27T07:27:56.523Z,1.80
2018-12-27T07:30:25.533Z,1.90
2018-12-27T07:32:54.661Z,1.80
2018-12-27T07:35:23.575Z,1.80
2018-12-27T07:37:52.515Z,1.80
2018-12-27T07:40:21.416Z,1.90
2018-12-27T07:42:50.330Z,1.90
2018-12-27T07:45:19.187Z,1.90
2018-12-27T07:47:48.009Z,1.90
2018-12-27T07:50:17.061Z,1.90
2018-12-27T07:52:45.967Z,1.90
2018-12-27T07:55:14.867Z,1.90
2018-12-27T07:57:43.958Z,1.80
2018-12-27T08:00:13.103Z,1.90
2018-12-27T08:02:42.431Z,2.00
2018-12-27T08:05:11.329Z,2.00
2018-12-27T08:07:40.435Z,2.10
2018-12-27T08:10:09.329Z,2.10
2018-12-27T08:12:38.380Z,2.20
2018-12-27T08:15:07.702Z,2.30
2018-12-27T08:17:36.523Z,2.30
2018-12-27T08:20:05.768Z,2.40
2018-12-27T08:22:34.706Z,2.30
2018-12-27T08:25:03.726Z,2.20
2018-12-27T08:27:32.582Z,2.10
2018-12-27T08:30:01.513Z,2.20
2018-12-27T08:32:30.434Z,2.20
2018-12-27T08:34:59.265Z,2.30
2018-12-27T08:37:28.125Z,2.30
2018-12-27T08:39:57.091Z,2.30
2018-12-27T08:42:26.123Z,2.40
2018-12-27T08:44:54.955Z,2.50
2018-12-27T08:47:23.778Z,2.50
2018-12-27T08:49:52.554Z,2.50
2018-12-27T08:52:21.370Z,2.60
2018-12-27T08:54:50.422Z,2.50
2018-12-27T08:57:19.366Z,2.60
2018-12-27T08:59:48.275Z,2.70
2018-12-27T09:02:17.121Z,2.80
2018-12-27T09:04:46.245Z,2.90
2018-12-27T09:07:15.288Z,3.00
2018-12-27T09:09:44.459Z,3.00
2018-12-27T09:12:13.422Z,3.20
2018-12-27T09:14:42.364Z,3.10
2018-12-27T09:17:11.331Z,3.20
2018-12-27T09:19:40.246Z,3.30
2018-12-27T09:22:09.125Z,3.30
2018-12-27T09:24:37.979Z,3.40
2018-12-27T09:27:06.917Z,3.40
2018-12-27T09:29:36.195Z,3.50
2018-12-27T09:32:05.011Z,3.70
2018-12-27T09:34:33.912Z,3.60
2018-12-27T09:37:02.813Z,3.70
2018-12-27T09:39:31.635Z,3.80
2018-12-27T09:42:00.558Z,3.90
2018-12-27T09:44:29.487Z,4.00
2018-12-27T09:46:58.428Z,3.90
2018-12-27T09:49:27.402Z,4.00
2018-12-27T09:52:01.978Z,4.10
2018-12-27T09:54:27.135Z,4.30
2018-12-27T09:56:56.159Z,4.30
2018-12-27T09:59:25.123Z,4.50
2018-12-27T10:01:54.311Z,4.70
2018-12-27T10:04:23.130Z,4.90
2018-12-27T10:06:52.063Z,5.10
2018-12-27T10:09:20.894Z,5.30
2018-12-27T10:11:49.827Z,5.50
2018-12-27T10:14:18.778Z,5.80
2018-12-27T10:16:47.715Z,5.70
2018-12-27T10:19:16.786Z,5.70
2018-12-27T10:21:45.722Z,5.90
2018-12-27T10:24:14.550Z,6.00
2018-12-27T10:26:43.903Z,5.90
2018-12-27T10:29:12.753Z,6.10
2018-12-27T10:31:41.661Z,6.30
2018-12-27T10:34:10.620Z,6.40
2018-12-27T10:36:40.823Z,6.60
2018-12-27T10:39:11.786Z,6.80
2018-12-27T10:41:40.730Z,7.00
2018-12-27T10:44:09.744Z,7.00
2018-12-27T10:46:38.559Z,7.10
2018-12-27T10:49:07.437Z,7.00
2018-12-27T10:51:36.242Z,7.20
2018-12-27T10:54:05.191Z,7.30
2018-12-27T10:56:34.076Z,7.50
2018-12-27T10:59:02.894Z,7.60
2018-12-27T11:01:31.722Z,7.90
2018-12-27T11:04:00.542Z,8.00
2018-12-27T11:06:29.471Z,8.00
2018-12-27T11:08:58.374Z,8.00
2018-12-27T11:11:27.523Z,8.10
2018-12-27T11:13:56.362Z,8.20
2018-12-27T11:16:25.219Z,8.10
2018-12-27T11:18:54.050Z,7.60
2018-12-27T11:21:22.870Z,7.40
2018-12-27T11:23:51.696Z,7.50
2018-12-27T11:26:20.638Z,7.20
2018-12-27T11:28:49.632Z,7.20
2018-12-27T11:31:18.448Z,7.20
2018-12-27T11:33:47.533Z,7.30
2018-12-27T11:36:17.332Z,7.10
2018-12-27T11:38:46.723Z,7.20
2018-12-27T11:41:15.558Z,7.40
2018-12-27T11:43:44.596Z,7.80
2018-12-27T11:46:13.541Z,8.40
2018-12-27T11:48:42.563Z,8.70
2018-12-27T11:51:11.687Z,8.90
2018-12-27T11:53:40.579Z,9.10
2018-12-27T11:56:09.482Z,9.00
2018-12-27T11:58:38.523Z,9.00
2018-12-27T12:01:07.995Z,9.00
2018-12-27T12:03:36.894Z,9.10
2018-12-27T12:06:05.894Z,9.10
2018-12-27T12:08:34.811Z,9.20
2018-12-27T12:11:03.949Z,9.00
2018-12-27T12:13:32.786Z,8.90
2018-12-27T12:16:01.693Z,8.90
2018-12-27T12:18:30.770Z,8.70
2018-12-27T12:20:59.949Z,8.90
2018-12-27T12:23:28.987Z,9.20
2018-12-27T12:25:58.052Z,9.20
2018-12-27T12:28:27.292Z,9.20
2018-12-27T12:30:56.352Z,9.10
2018-12-27T12:33:27.670Z,9.50
2018-12-27T12:35:58.041Z,9.40
2018-12-27T12:38:29.004Z,9.30
2018-12-27T12:41:00.300Z,9.70
2018-12-27T12:43:29.575Z,9.60
2018-12-27T12:45:59.626Z,9.40
2018-12-27T12:48:28.871Z,9.50
2018-12-27T12:50:58.878Z,9.60
2018-12-27T12:53:27.955Z,9.60
2018-12-27T12:55:56.818Z,9.50
2018-12-27T12:58:25.791Z,9.50
2018-12-27T13:00:54.723Z,9.50
2018-12-27T13:03:23.589Z,9.20
2018-12-27T13:05:52.664Z,9.50
2018-12-27T13:08:21.429Z,9.80
2018-12-27T13:10:52.457Z,10.10
2018-12-27T13:13:21.536Z,10.10
2018-12-27T13:15:50.682Z,10.30
2018-12-27T13:18:19.663Z,10.50
2018-12-27T13:20:48.744Z,10.50
2018-12-27T13:23:17.601Z,10.10
2018-12-27T13:25:47.157Z,9.90
2018-12-27T13:28:16.674Z,9.80
2018-12-27T13:30:45.587Z,9.70
2018-12-27T13:33:14.627Z,9.50
2018-12-27T13:35:43.710Z,9.50
2018-12-27T13:38:13.710Z,9.30
2018-12-27T13:40:42.786Z,9.40
2018-12-27T13:43:11.746Z,9.40
2018-12-27T13:45:40.779Z,9.50
2018-12-27T13:48:09.797Z,9.60
2018-12-27T13:50:38.912Z,9.30
2018-12-27T13:53:07.867Z,9.20
2018-12-27T13:55:36.801Z,9.10
2018-12-27T13:58:05.754Z,9.00
2018-12-27T14:00:34.984Z,9.00
2018-12-27T14:03:03.891Z,9.00
2018-12-27T14:05:32.744Z,8.90
2018-12-27T14:08:01.621Z,8.90
2018-12-27T14:10:30.492Z,8.80
2018-12-27T14:12:59.371Z,8.70
2018-12-27T14:15:28.203Z,8.80
2018-12-27T14:17:57.139Z,8.80
2018-12-27T14:20:26.267Z,8.80
2018-12-27T14:22:55.179Z,8.70
2018-12-27T14:25:24.098Z,8.60
2018-12-27T14:27:53.111Z,8.60
2018-12-27T14:30:22.017Z,8.50
2018-12-27T14:32:50.844Z,8.60
2018-12-27T14:35:19.842Z,8.50
2018-12-27T14:37:48.831Z,8.50
2018-12-27T14:40:17.731Z,8.40
2018-12-27T14:42:46.711Z,8.30
2018-12-27T14:45:15.538Z,8.20
2018-12-27T14:47:44.455Z,8.00
2018-12-27T14:50:13.301Z,8.00
2018-12-27T14:52:42.162Z,7.90
2018-12-27T14:55:11.089Z,7.60
2018-12-27T14:57:39.922Z,7.60
2018-12-27T15:00:10.476Z,7.40
2018-12-27T15:02:39.445Z,7.40
2018-12-27T15:05:08.482Z,7.30
2018-12-27T15:07:37.571Z,7.30
2018-12-27T15:10:08.525Z,7.10
2018-12-27T15:12:37.543Z,7.00
2018-12-27T15:15:06.433Z,6.90
2018-12-27T15:17:35.309Z,6.80
2018-12-27T15:20:04.635Z,6.80
2018-12-27T15:22:33.483Z,6.80
2018-12-27T15:25:02.625Z,6.80
2018-12-27T15:27:31.602Z,6.60
2018-12-27T15:30:00.699Z,6.60
2018-12-27T15:32:29.707Z,6.50
2018-12-27T15:34:58.811Z,6.60
2018-12-27T15:37:27.733Z,6.60
2018-12-27T15:39:56.623Z,6.70
2018-12-27T15:42:25.611Z,6.70
2018-12-27T15:44:54.466Z,6.70
2018-12-27T15:47:23.555Z,6.70
2018-12-27T15:49:52.435Z,6.70
2018-12-27T15:52:21.330Z,6.80
2018-12-27T15:54:50.224Z,6.60
2018-12-27T15:57:19.463Z,6.60
2018-12-27T15:59:48.288Z,6.50
2018-12-27T16:02:17.119Z,6.60
2018-12-27T16:04:46.127Z,6.70
2018-12-27T16:07:15.217Z,6.70
2018-12-27T16:09:44.062Z,6.80
2018-12-27T16:12:13.006Z,6.70
2018-12-27T16:14:44.546Z,6.60
2018-12-27T16:17:12.389Z,6.50
2018-12-27T16:19:41.290Z,6.60
2018-12-27T16:22:10.540Z,6.60
2018-12-27T16:24:39.654Z,6.50
2018-12-27T16:27:09.509Z,6.50
2018-12-27T16:29:38.582Z,6.50
2018-12-27T16:32:07.535Z,6.60
2018-12-27T16:34:36.604Z,6.70
2018-12-27T16:37:08.974Z,6.60
2018-12-27T16:39:36.363Z,6.50
2018-12-27T16:42:05.503Z,6.50
2018-12-27T16:44:34.714Z,6.50
2018-12-27T16:47:03.964Z,6.40
2018-12-27T16:49:32.830Z,6.20
2018-12-27T16:52:01.790Z,6.20
2018-12-27T16:54:31.531Z,6.10
2018-12-27T16:57:00.656Z,6.10
2018-12-27T16:59:29.523Z,5.90
2018-12-27T17:01:58.488Z,5.70
2018-12-27T17:04:28.477Z,5.80
2018-12-27T17:06:57.417Z,5.90
2018-12-27T17:09:26.401Z,5.90
2018-12-27T17:11:55.692Z,5.90
2018-12-27T17:14:24.823Z,5.60
2018-12-27T17:16:53.866Z,5.40
2018-12-27T17:19:22.839Z,5.20
2018-12-27T17:21:52.527Z,5.20
2018-12-27T17:24:21.490Z,5.30
2018-12-27T17:26:50.422Z,5.40
2018-12-27T17:29:19.532Z,5.50
2018-12-27T17:31:48.433Z,5.40
2018-12-27T17:34:17.439Z,5.30
2018-12-27T17:36:46.354Z,5.40
2018-12-27T17:39:15.242Z,5.50
2018-12-27T17:41:44.101Z,5.60
2018-12-27T17:44:13.015Z,5.60
2018-12-27T17:46:42.128Z,5.50
2018-12-27T17:49:12.167Z,5.50
2018-12-27T17:51:41.349Z,5.50
2018-12-27T17:54:10.497Z,5.30
2018-12-27T17:56:40.419Z,5.30
2018-12-27T17:59:09.670Z,5.30
2018-12-27T18:01:38.576Z,5.30
2018-12-27T18:04:07.846Z,5.40
2018-12-27T18:06:37.282Z,5.20
2018-12-27T18:09:07.920Z,5.20
2018-12-27T18:11:37.068Z,5.30
2018-12-27T18:14:14.253Z,5.30
2018-12-27T18:16:46.658Z,5.20
2018-12-27T18:19:17.910Z,5.30
2018-12-27T18:21:47.044Z,5.40
2018-12-27T18:24:16.393Z,5.50
2018-12-27T18:26:45.731Z,5.50
2018-12-27T18:29:15.508Z,5.50
2018-12-27T18:31:44.744Z,5.50
2018-12-27T18:34:13.812Z,5.50
2018-12-27T18:36:42.815Z,5.30
2018-12-27T18:39:31.233Z,5.20
2018-12-27T18:42:00.713Z,5.20
2018-12-27T18:44:29.683Z,5.30
2018-12-27T18:46:58.753Z,5.30
2018-12-27T18:49:27.659Z,5.20
2018-12-27T18:51:56.747Z,5.30
2018-12-27T18:54:25.639Z,5.30
2018-12-27T18:56:54.690Z,5.40
2018-12-27T18:59:23.550Z,5.40
2018-12-27T19:01:52.506Z,5.30
2018-12-27T19:04:21.435Z,5.30
2018-12-27T19:06:50.534Z,5.30
2018-12-27T19:09:19.406Z,5.20
2018-12-27T19:12:24.066Z,5.30
2018-12-27T19:14:54.955Z,5.20
2018-12-27T19:17:28.275Z,5.20
2018-12-27T19:19:57.326Z,5.30
2018-12-27T19:22:36.797Z,5.30
2018-12-27T19:25:06.078Z,5.30
2018-12-27T19:27:35.101Z,5.30
2018-12-27T19:30:04.518Z,5.10
2018-12-27T19:32:33.654Z,4.90
2018-12-27T19:35:02.984Z,4.70
2018-12-27T19:37:32.359Z,4.70
2018-12-27T19:40:01.492Z,4.60
2018-12-27T19:42:30.654Z,4.70
2018-12-27T19:44:59.829Z,4.70
2018-12-27T19:47:28.919Z,4.80
2018-12-27T19:49:58.122Z,4.70
2018-12-27T19:52:27.309Z,4.90
2018-12-27T19:54:56.329Z,4.80
2018-12-27T19:57:25.179Z,4.70
2018-12-27T19:59:54.262Z,4.80
2018-12-27T20:02:23.275Z,4.70
2018-12-27T20:04:52.306Z,4.60
2018-12-27T20:07:21.464Z,4.60
2018-12-27T20:09:50.953Z,4.60
2018-12-27T20:12:20.055Z,4.70
2018-12-27T20:14:48.989Z,4.60
2018-12-27T20:17:17.861Z,4.50
2018-12-27T20:19:46.885Z,4.50
2018-12-27T20:22:16.142Z,4.50
2018-12-27T20:24:45.098Z,4.60
2018-12-27T20:27:14.172Z,4.50
2018-12-27T20:29:43.202Z,4.50
2018-12-27T20:32:12.460Z,4.50
2018-12-27T20:34:41.657Z,4.60
2018-12-27T20:37:10.650Z,4.70
2018-12-27T20:39:39.641Z,4.80
2018-12-27T20:42:08.627Z,4.80
2018-12-27T20:44:37.553Z,4.80
2018-12-27T20:47:06.831Z,4.60
2018-12-27T20:49:35.889Z,4.40
2018-12-27T20:52:05.081Z,4.40
2018-12-27T20:54:33.947Z,4.40
2018-12-27T20:57:03.055Z,4.40
2018-12-27T20:59:32.010Z,4.40
2018-12-27T21:02:01.006Z,4.40
2018-12-27T21:04:29.874Z,4.50
2018-12-27T21:06:59.715Z,4.50
2018-12-27T21:09:28.834Z,4.40
2018-12-27T21:11:57.979Z,4.40
2018-12-27T21:14:27.940Z,4.50
2018-12-27T21:16:56.800Z,4.70
2018-12-27T21:19:25.716Z,4.70
2018-12-27T21:21:54.665Z,4.80
2018-12-27T21:24:23.601Z,4.80
2018-12-27T21:26:52.603Z,4.70
2018-12-27T21:29:21.630Z,4.70
2018-12-27T21:31:50.592Z,4.70
2018-12-27T21:34:19.516Z,4.60
2018-12-27T21:36:48.495Z,4.40
2018-12-27T21:39:17.566Z,4.20
2018-12-27T21:41:46.465Z,4.20
2018-12-27T21:44:15.346Z,4.10
2018-12-27T21:46:44.414Z,4.00
2018-12-27T21:49:15.399Z,4.10
2018-12-27T21:51:44.280Z,4.10
2018-12-27T21:54:13.444Z,4.10
2018-12-27T21:56:42.421Z,4.10
2018-12-27T21:59:11.401Z,4.20
2018-12-27T22:01:40.351Z,4.20
2018-12-27T22:04:09.237Z,4.30
2018-12-27T22:06:38.238Z,4.30
2018-12-27T22:09:07.595Z,4.30
2018-12-27T22:11:36.594Z,4.30
2018-12-27T22:14:05.533Z,4.40
2018-12-27T22:16:34.466Z,4.40
2018-12-27T22:19:03.462Z,4.40
2018-12-27T22:21:32.358Z,4.40
2018-12-27T22:24:01.291Z,4.50
2018-12-27T22:26:30.378Z,4.50
2018-12-27T22:28:59.241Z,4.40
2018-12-27T22:31:28.226Z,4.40
2018-12-27T22:33:57.492Z,4.50
2018-12-27T22:36:26.421Z,4.50
2018-12-27T22:38:55.380Z,4.60
2018-12-27T22:41:24.612Z,4.70
2018-12-27T22:43:53.734Z,4.70
2018-12-27T22:46:24.319Z,4.80
2018-12-27T22:48:55.697Z,4.90
2018-12-27T22:51:25.036Z,4.90
2018-12-27T22:53:56.143Z,4.70
2018-12-27T22:56:27.909Z,4.50
2018-12-27T22:58:57.772Z,4.60
2018-12-27T23:01:28.365Z,4.60
2018-12-27T23:03:58.036Z,4.80
2018-12-27T23:06:27.326Z,4.80
2018-12-27T23:08:56.256Z,4.80
2018-12-27T23:11:26.573Z,4.90
2018-12-27T23:13:55.758Z,4.70
2018-12-27T23:16:24.609Z,4.70
2018-12-27T23:18:54.374Z,4.60
2018-12-27T23:21:23.306Z,4.40
2018-12-27T23:23:52.147Z,4.40
2018-12-27T23:26:21.068Z,4.40
2018-12-27T23:28:49.877Z,4.50
2018-12-27T23:31:18.941Z,4.60
2018-12-27T23:33:47.881Z,4.70
2018-12-27T23:36:16.766Z,4.70
2018-12-27T23:38:50.243Z,4.80
2018-12-27T23:41:16.334Z,4.80
2018-12-27T23:43:45.269Z,4.80
2018-12-27T23:46:14.081Z,4.90
2018-12-27T23:48:43.064Z,4.80
2018-12-27T23:51:12.072Z,4.90
2018-12-27T23:53:41.030Z,4.80
2018-12-27T23:56:10.110Z,4.80
2018-12-27T23:58:39.103Z,4.60
